createdAt,value
2018-07-26T00:01:19.686Z,101432.22
2018-07-26T00:03:50.833Z,101434.41
2018-07-26T00:06:20.439Z,101436.83
2018-07-26T00:08:50.348Z,101432.22
2018-07-26T00:11:20.305Z,101427.92
2018-07-26T00:13:50.005Z,101430.23
2018-07-26T00:16:19.836Z,101438.05
2018-07-26T00:18:49.840Z,101436.23
2018-07-26T00:21:19.285Z,101439.80
2018-07-26T00:23:48.863Z,101436.71
2018-07-26T00:26:20.392Z,101438.11
2018-07-26T00:28:49.741Z,101437.49
2018-07-26T00:31:19.258Z,101447.42
2018-07-26T00:33:48.884Z,101443.51
2018-07-26T00:36:18.466Z,101439.95
2018-07-26T00:38:48.023Z,101445.09
2018-07-26T00:41:18.124Z,101444.23
2018-07-26T00:43:48.199Z,101449.69
2018-07-26T00:46:17.868Z,101453.78
2018-07-26T00:48:48.377Z,101453.28
2018-07-26T00:51:17.903Z,101450.55
2018-07-26T00:53:47.923Z,101446.12
2018-07-26T00:56:18.364Z,101453.59
2018-07-26T00:58:48.573Z,101449.55
2018-07-26T01:01:18.995Z,101448.02
2018-07-26T01:03:48.808Z,101447.84
2018-07-26T01:06:19.221Z,101452.77
2018-07-26T01:08:49.139Z,101450.89
2018-07-26T01:11:19.065Z,101441.70
2018-07-26T01:13:49.492Z,101449.69
2018-07-26T01:16:21.853Z,101451.58
2018-07-26T01:18:51.908Z,101453.63
2018-07-26T01:21:22.181Z,101449.05
2018-07-26T01:23:52.020Z,101455.50
2018-07-26T01:26:21.910Z,101452.28
2018-07-26T01:28:51.683Z,101452.59
2018-07-26T01:31:21.951Z,101457.72
2018-07-26T01:33:52.790Z,101450.72
2018-07-26T01:36:23.415Z,101450.06
2018-07-26T01:38:53.368Z,101453.62
2018-07-26T01:41:23.130Z,101457.20
2018-07-26T01:44:03.784Z,101459.73
2018-07-26T01:46:33.088Z,101453.27
2018-07-26T01:49:02.477Z,101453.59
2018-07-26T01:51:31.938Z,101450.52
2018-07-26T01:54:01.343Z,101453.95
2018-07-26T01:56:30.641Z,101457.37
2018-07-26T01:58:59.981Z,101455.33
2018-07-26T02:01:29.528Z,101457.88
2018-07-26T02:03:59.160Z,101456.34
2018-07-26T02:06:29.896Z,101453.30
2018-07-26T02:08:59.460Z,101451.59
2018-07-26T02:11:28.985Z,101452.55
2018-07-26T02:13:58.552Z,101453.56
2018-07-26T02:16:27.893Z,101453.03
2018-07-26T02:18:57.305Z,101450.48
2018-07-26T02:21:27.232Z,101450.14
2018-07-26T02:23:56.584Z,101451.87
2018-07-26T02:26:26.255Z,101447.59
2018-07-26T02:28:58.518Z,101454.48
2018-07-26T02:31:28.037Z,101450.39
2018-07-26T02:33:57.793Z,101453.28
2018-07-26T02:36:27.312Z,101440.77
2018-07-26T02:38:56.791Z,101444.51
2018-07-26T02:41:26.317Z,101442.47
2018-07-26T02:43:55.639Z,101444.12
2018-07-26T02:46:31.984Z,101450.91
2018-07-26T02:49:01.259Z,101454.49
2018-07-26T02:51:30.615Z,101456.73
2018-07-26T02:54:00.178Z,101448.92
2018-07-26T02:56:29.597Z,101452.33
2018-07-26T02:58:58.903Z,101455.84
2018-07-26T03:01:28.466Z,101459.58
2018-07-26T03:03:57.932Z,101462.47
2018-07-26T03:06:27.435Z,101471.14
2018-07-26T03:08:56.742Z,101469.02
2018-07-26T03:11:26.164Z,101466.64
2018-07-26T03:13:55.442Z,101466.47
2018-07-26T03:16:25.261Z,101466.20
2018-07-26T03:18:54.575Z,101468.79
2018-07-26T03:21:23.843Z,101464.37
2018-07-26T03:23:54.123Z,101457.26
2018-07-26T03:26:24.522Z,101462.16
2018-07-26T03:28:53.804Z,101462.73
2018-07-26T03:31:23.333Z,101468.00
2018-07-26T03:33:52.593Z,101467.83
2018-07-26T03:36:21.954Z,101467.33
2018-07-26T03:38:51.519Z,101458.59
2018-07-26T03:41:20.923Z,101467.97
2018-07-26T03:43:50.740Z,101462.02
2018-07-26T03:46:20.754Z,101466.81
2018-07-26T03:48:50.421Z,101463.75
2018-07-26T03:51:20.032Z,101472.91
2018-07-26T03:53:49.848Z,101473.52
2018-07-26T03:56:19.702Z,101474.88
2018-07-26T03:58:49.525Z,101472.16
2018-07-26T04:01:19.192Z,101474.57
2018-07-26T04:03:49.088Z,101475.94
2018-07-26T04:06:18.912Z,101470.32
2018-07-26T04:08:48.700Z,101474.27
2018-07-26T04:11:18.618Z,101467.14
2018-07-26T04:13:48.401Z,101474.00
2018-07-26T04:16:18.101Z,101470.27
2018-07-26T04:18:47.702Z,101480.69
2018-07-26T04:21:17.715Z,101475.75
2018-07-26T04:23:47.878Z,101477.30
2018-07-26T04:26:17.689Z,101484.61
2018-07-26T04:28:47.280Z,101478.97
2018-07-26T04:31:17.408Z,101477.79
2018-07-26T04:33:46.779Z,101480.52
2018-07-26T04:36:16.434Z,101480.29
2018-07-26T04:38:46.112Z,101484.89
2018-07-26T04:41:15.581Z,101482.88
2018-07-26T04:43:44.950Z,101487.46
2018-07-26T04:46:14.879Z,101487.98
2018-07-26T04:48:44.781Z,101494.81
2018-07-26T04:51:14.657Z,101492.24
2018-07-26T04:53:44.613Z,101493.27
2018-07-26T04:56:14.589Z,101492.06
2018-07-26T04:58:44.100Z,101490.04
2018-07-26T05:01:13.656Z,101494.78
2018-07-26T05:03:43.049Z,101488.66
2018-07-26T05:06:12.596Z,101489.02
2018-07-26T05:08:42.364Z,101494.94
2018-07-26T05:11:12.545Z,101494.72
2018-07-26T05:13:42.303Z,101487.21
2018-07-26T05:16:12.650Z,101488.70
2018-07-26T05:18:42.799Z,101485.39
2018-07-26T05:21:12.893Z,101489.12
2018-07-26T05:23:42.985Z,101487.76
2018-07-26T05:26:12.859Z,101489.09
2018-07-26T05:28:43.266Z,101491.97
2018-07-26T05:31:13.186Z,101495.25
2018-07-26T05:33:43.395Z,101494.52
2018-07-26T05:36:13.512Z,101493.81
2018-07-26T05:38:43.574Z,101492.98
2018-07-26T05:41:13.467Z,101494.63
2018-07-26T05:43:43.881Z,101500.19
2018-07-26T05:46:14.295Z,101500.09
2018-07-26T05:48:44.285Z,101503.95
2018-07-26T05:51:14.245Z,101494.58
2018-07-26T05:53:44.705Z,101499.42
2018-07-26T05:56:15.309Z,101504.05
2018-07-26T05:58:45.891Z,101505.42
2018-07-26T06:01:16.995Z,101504.32
2018-07-26T06:03:47.139Z,101505.13
2018-07-26T06:06:17.459Z,101514.45
2018-07-26T06:08:47.897Z,101513.30
2018-07-26T06:11:18.072Z,101514.37
2018-07-26T06:13:48.249Z,101512.95
2018-07-26T06:16:18.761Z,101514.37
2018-07-26T06:18:51.700Z,101516.46
2018-07-26T06:21:22.476Z,101515.28
2018-07-26T06:23:52.049Z,101521.54
2018-07-26T06:26:21.464Z,101529.63
2018-07-26T06:28:52.390Z,101527.25
2018-07-26T06:31:22.478Z,101528.33
2018-07-26T06:33:52.147Z,101526.66
2018-07-26T06:36:22.252Z,101527.84
2018-07-26T06:38:52.272Z,101527.36
2018-07-26T06:41:23.663Z,101531.87
2018-07-26T06:43:53.957Z,101530.56
2018-07-26T06:46:24.082Z,101542.30
2018-07-26T06:48:53.825Z,101538.50
2018-07-26T06:51:23.885Z,101538.91
2018-07-26T06:53:53.650Z,101539.55
2018-07-26T06:56:23.609Z,101539.59
2018-07-26T06:58:53.343Z,101542.23
2018-07-26T07:01:23.082Z,101538.24
2018-07-26T07:03:53.103Z,101542.25
2018-07-26T07:06:22.768Z,101542.88
2018-07-26T07:08:52.591Z,101543.13
2018-07-26T07:11:22.206Z,101544.94
2018-07-26T07:13:52.191Z,101544.14
2018-07-26T07:16:22.418Z,101550.77
2018-07-26T07:18:52.365Z,101544.64
2018-07-26T07:21:22.510Z,101548.92
2018-07-26T07:23:53.019Z,101548.22
2018-07-26T07:26:22.445Z,101556.89
2018-07-26T07:28:52.282Z,101551.61
2018-07-26T07:31:21.788Z,101554.88
2018-07-26T07:33:51.336Z,101554.36
2018-07-26T07:36:21.153Z,101550.77
2018-07-26T07:38:50.891Z,101544.94
2018-07-26T07:41:20.730Z,101539.69
2018-07-26T07:43:50.492Z,101542.17
2018-07-26T07:46:19.862Z,101543.59
2018-07-26T07:48:49.369Z,101544.34
2018-07-26T07:51:19.210Z,101548.36
2018-07-26T07:53:48.820Z,101540.76
2018-07-26T07:56:19.393Z,101549.44
2018-07-26T07:58:49.022Z,101544.47
2018-07-26T08:01:18.478Z,101545.09
2018-07-26T08:03:48.000Z,101549.64
2018-07-26T08:06:17.793Z,101550.05
2018-07-26T08:08:47.489Z,101549.55
2018-07-26T08:11:17.268Z,101552.86
2018-07-26T08:13:47.031Z,101550.36
2018-07-26T08:16:16.610Z,101541.60
2018-07-26T08:18:46.362Z,101553.81
2018-07-26T08:21:16.176Z,101549.14
2018-07-26T08:23:46.178Z,101548.30
2018-07-26T08:26:15.885Z,101548.73
2018-07-26T08:28:46.434Z,101552.64
2018-07-26T08:31:16.177Z,101553.01
2018-07-26T08:33:46.253Z,101548.47
2018-07-26T08:36:16.063Z,101545.72
2018-07-26T08:38:46.049Z,101554.70
2018-07-26T08:41:15.863Z,101553.58
2018-07-26T08:43:45.645Z,101555.44
2018-07-26T08:46:15.254Z,101558.19
2018-07-26T08:48:45.153Z,101557.30
2018-07-26T08:51:15.296Z,101555.92
2018-07-26T08:53:45.466Z,101558.35
2018-07-26T08:56:15.465Z,101559.87
2018-07-26T08:58:45.247Z,101554.17
2018-07-26T09:01:14.921Z,101558.89
2018-07-26T09:03:44.617Z,101557.46
2018-07-26T09:06:14.950Z,101556.52
2018-07-26T09:08:44.896Z,101557.14
2018-07-26T09:11:14.673Z,101554.95
2018-07-26T09:13:44.697Z,101546.40
2018-07-26T09:16:14.440Z,101551.20
2018-07-26T09:18:44.259Z,101551.39
2018-07-26T09:21:14.115Z,101556.64
2018-07-26T09:23:43.925Z,101559.58
2018-07-26T09:26:14.035Z,101554.05
2018-07-26T09:28:44.115Z,101553.14
2018-07-26T09:31:13.984Z,101552.47
2018-07-26T09:33:44.260Z,101556.85
2018-07-26T09:36:14.633Z,101558.14
2018-07-26T09:38:45.624Z,101558.78
2018-07-26T09:41:16.149Z,101558.03
2018-07-26T09:43:46.369Z,101564.39
2018-07-26T09:46:16.215Z,101550.43
2018-07-26T09:48:47.527Z,101549.14
2018-07-26T09:51:17.347Z,101555.49
2018-07-26T09:53:47.207Z,101555.59
2018-07-26T09:56:16.894Z,101556.91
2018-07-26T09:58:47.082Z,101550.07
2018-07-26T10:01:21.745Z,101548.20
2018-07-26T10:03:51.962Z,101546.64
2018-07-26T10:06:21.826Z,101548.58
2018-07-26T10:08:51.960Z,101545.36
2018-07-26T10:11:21.917Z,101549.27
2018-07-26T10:13:51.658Z,101547.02
2018-07-26T10:16:21.990Z,101548.13
2018-07-26T10:18:52.601Z,101549.80
2018-07-26T10:21:22.572Z,101542.05
2018-07-26T10:23:52.588Z,101545.50
2018-07-26T10:26:23.086Z,101539.19
2018-07-26T10:28:54.303Z,101537.68
2018-07-26T10:31:24.054Z,101541.75
2018-07-26T10:33:53.966Z,101535.81
2018-07-26T10:36:24.173Z,101542.83
2018-07-26T10:38:54.119Z,101543.33
2018-07-26T10:41:23.988Z,101544.81
2018-07-26T10:43:54.183Z,101543.34
2018-07-26T10:46:24.332Z,101534.56
2018-07-26T10:48:53.980Z,101537.91
2018-07-26T10:51:23.788Z,101538.14
2018-07-26T10:53:53.515Z,101525.17
2018-07-26T10:56:23.414Z,101526.41
2018-07-26T10:58:53.142Z,101528.77
2018-07-26T11:01:23.086Z,101526.16
2018-07-26T11:03:52.837Z,101518.66
2018-07-26T11:06:22.596Z,101513.41
2018-07-26T11:08:52.311Z,101524.01
2018-07-26T11:11:22.981Z,101520.61
2018-07-26T11:13:52.733Z,101529.84
2018-07-26T11:16:22.625Z,101523.02
2018-07-26T11:18:52.629Z,101525.31
2018-07-26T11:21:23.097Z,101520.66
2018-07-26T11:23:52.898Z,101518.52
2018-07-26T11:26:22.952Z,101521.13
2018-07-26T11:28:53.610Z,101531.22
2018-07-26T11:31:23.484Z,101530.88
2018-07-26T11:33:52.995Z,101534.72
2018-07-26T11:36:22.390Z,101531.13
2018-07-26T11:38:52.268Z,101531.48
2018-07-26T11:41:21.965Z,101517.47
2018-07-26T11:43:52.068Z,101518.03
2018-07-26T11:46:21.684Z,101518.80
2018-07-26T11:48:51.286Z,101529.69
2018-07-26T11:51:21.098Z,101528.77
2018-07-26T11:53:50.812Z,101518.79
2018-07-26T11:56:20.670Z,101526.16
2018-07-26T11:58:50.094Z,101524.27
2018-07-26T12:01:20.477Z,101528.45
2018-07-26T12:03:50.676Z,101528.79
2018-07-26T12:06:21.252Z,101544.89
2018-07-26T12:08:51.617Z,101557.34
2018-07-26T12:11:21.905Z,101576.14
2018-07-26T12:13:52.318Z,101583.49
2018-07-26T12:16:22.416Z,101589.34
2018-07-26T12:18:52.485Z,101583.70
2018-07-26T12:21:22.505Z,101569.80
2018-07-26T12:23:52.382Z,101567.70
2018-07-26T12:26:22.848Z,101565.77
2018-07-26T12:28:53.417Z,101557.45
2018-07-26T12:31:23.672Z,101553.33
2018-07-26T12:33:54.593Z,101548.59
2018-07-26T12:36:24.696Z,101545.63
2018-07-26T12:38:54.689Z,101536.66
2018-07-26T12:41:24.722Z,101531.37
2018-07-26T12:43:54.371Z,101534.55
2018-07-26T12:46:24.286Z,101533.33
2018-07-26T12:48:54.774Z,101534.75
2018-07-26T12:51:24.499Z,101528.94
2018-07-26T12:53:54.435Z,101526.83
2018-07-26T12:56:24.838Z,101520.91
2018-07-26T12:58:55.018Z,101513.73
2018-07-26T13:01:25.198Z,101507.63
2018-07-26T13:03:55.619Z,101510.19
2018-07-26T13:06:25.344Z,101513.27
2018-07-26T13:08:55.123Z,101507.27
2018-07-26T13:11:24.835Z,101504.74
2018-07-26T13:13:54.647Z,101493.72
2018-07-26T13:16:24.455Z,101501.75
2018-07-26T13:18:54.157Z,101500.06
2018-07-26T13:21:23.838Z,101497.52
2018-07-26T13:23:53.492Z,101501.43
2018-07-26T13:26:23.195Z,101491.02
2018-07-26T13:28:52.883Z,101492.39
2018-07-26T13:31:22.906Z,101489.89
2018-07-26T13:33:52.671Z,101491.81
2018-07-26T13:36:22.472Z,101487.87
2018-07-26T13:38:52.354Z,101490.70
2018-07-26T13:41:22.395Z,101482.58
2018-07-26T13:43:52.156Z,101481.05
2018-07-26T13:46:23.226Z,101485.77
2018-07-26T13:48:53.482Z,101484.33
2018-07-26T13:51:24.042Z,101481.72
2018-07-26T13:53:54.017Z,101480.59
2018-07-26T13:56:24.146Z,101480.28
2018-07-26T13:58:54.063Z,101482.70
2018-07-26T14:01:23.932Z,101486.75
2018-07-26T14:03:53.811Z,101488.14
2018-07-26T14:06:23.350Z,101482.41
2018-07-26T14:08:52.977Z,101478.89
2018-07-26T14:11:22.773Z,101482.70
2018-07-26T14:13:53.429Z,101484.54
2018-07-26T14:16:23.299Z,101480.16
2018-07-26T14:18:53.539Z,101476.45
2018-07-26T14:21:23.616Z,101483.75
2018-07-26T14:24:02.290Z,101479.38
2018-07-26T14:26:32.486Z,101483.41
2018-07-26T14:29:01.855Z,101472.38
2018-07-26T14:31:31.218Z,101472.05
2018-07-26T14:34:00.959Z,101468.80
2018-07-26T14:36:30.369Z,101469.31
2018-07-26T14:38:59.811Z,101467.46
2018-07-26T14:41:29.548Z,101467.59
2018-07-26T14:43:58.936Z,101466.48
2018-07-26T14:46:28.489Z,101472.98
2018-07-26T14:48:58.025Z,101464.88
2018-07-26T14:51:27.496Z,101466.86
2018-07-26T14:53:57.257Z,101471.70
2018-07-26T14:56:27.149Z,101460.13
2018-07-26T14:58:56.992Z,101461.94
2018-07-26T15:01:26.588Z,101456.52
2018-07-26T15:03:56.161Z,101462.09
2018-07-26T15:06:25.805Z,101456.36
2018-07-26T15:08:55.620Z,101454.63
2018-07-26T15:11:26.009Z,101455.23
2018-07-26T15:13:55.680Z,101452.75
2018-07-26T15:16:25.393Z,101452.42
2018-07-26T15:18:55.475Z,101452.32
2018-07-26T15:21:25.137Z,101455.34
2018-07-26T15:23:54.925Z,101455.52
2018-07-26T15:26:25.073Z,101450.02
2018-07-26T15:28:54.915Z,101452.59
2018-07-26T15:31:24.812Z,101446.09
2018-07-26T15:33:54.996Z,101446.58
2018-07-26T15:36:24.902Z,101441.98
2018-07-26T15:38:54.649Z,101443.63
2018-07-26T15:41:24.697Z,101445.36
2018-07-26T15:43:55.093Z,101444.90
2018-07-26T15:46:24.655Z,101445.45
2018-07-26T15:48:54.171Z,101447.99
2018-07-26T15:51:23.947Z,101443.39
2018-07-26T15:53:53.605Z,101442.38
2018-07-26T15:56:23.698Z,101438.09
2018-07-26T15:58:53.288Z,101439.87
2018-07-26T16:01:23.507Z,101436.83
2018-07-26T16:03:53.777Z,101438.20
2018-07-26T16:06:24.633Z,101445.79
2018-07-26T16:08:55.204Z,101435.80
2018-07-26T16:11:24.909Z,101438.75
2018-07-26T16:13:57.613Z,101439.95
2018-07-26T16:16:28.083Z,101438.59
2018-07-26T16:18:57.792Z,101435.45
2018-07-26T16:21:27.697Z,101436.86
2018-07-26T16:23:57.595Z,101435.78
2018-07-26T16:26:27.260Z,101434.95
2018-07-26T16:28:56.944Z,101441.22
2018-07-26T16:31:27.107Z,101446.80
2018-07-26T16:33:56.762Z,101437.84
2018-07-26T16:36:28.137Z,101440.78
2018-07-26T16:38:58.956Z,101427.88
2018-07-26T16:41:28.757Z,101433.27
2018-07-26T16:43:58.325Z,101437.86
2018-07-26T16:46:28.713Z,101430.70
2018-07-26T16:48:58.489Z,101428.30
2018-07-26T16:51:28.699Z,101436.63
2018-07-26T16:53:58.373Z,101428.64
2018-07-26T16:56:28.496Z,101427.41
2018-07-26T16:58:58.003Z,101424.96
2018-07-26T17:01:27.551Z,101431.53
2018-07-26T17:03:57.109Z,101427.26
2018-07-26T17:06:26.445Z,101431.47
2018-07-26T17:08:55.810Z,101428.70
2018-07-26T17:11:25.609Z,101431.28
2018-07-26T17:13:55.519Z,101429.59
2018-07-26T17:16:25.419Z,101426.22
2018-07-26T17:18:56.115Z,101428.98
2018-07-26T17:21:25.856Z,101426.96
2018-07-26T17:23:57.521Z,101427.91
2018-07-26T17:26:27.457Z,101435.70
2018-07-26T17:28:59.108Z,101431.94
2018-07-26T17:31:28.813Z,101436.48
2018-07-26T17:33:58.137Z,101426.03
2018-07-26T17:36:27.517Z,101425.03
2018-07-26T17:38:56.963Z,101427.91
2018-07-26T17:41:26.675Z,101426.50
2018-07-26T17:43:56.614Z,101430.09
2018-07-26T17:46:26.095Z,101440.14
2018-07-26T17:48:55.795Z,101436.80
2018-07-26T17:51:25.847Z,101436.22
2018-07-26T17:53:56.081Z,101436.61
2018-07-26T17:56:26.255Z,101444.34
2018-07-26T17:58:55.968Z,101438.75
2018-07-26T18:01:25.606Z,101440.36
2018-07-26T18:03:56.100Z,101439.64
2018-07-26T18:06:25.599Z,101443.14
2018-07-26T18:08:54.861Z,101438.09
2018-07-26T18:11:24.612Z,101438.33
2018-07-26T18:13:54.108Z,101440.38
2018-07-26T18:16:29.125Z,101442.98
2018-07-26T18:18:58.492Z,101445.76
2018-07-26T18:21:29.159Z,101445.66
2018-07-26T18:24:00.134Z,101444.20
2018-07-26T18:26:29.808Z,101450.09
2018-07-26T18:28:59.461Z,101453.25
2018-07-26T18:31:30.725Z,101452.89
2018-07-26T18:34:00.151Z,101456.14
2018-07-26T18:36:29.869Z,101457.73
2018-07-26T18:38:59.581Z,101465.70
2018-07-26T18:41:29.181Z,101455.88
2018-07-26T18:43:59.133Z,101466.14
2018-07-26T18:46:28.961Z,101460.36
2018-07-26T18:48:58.865Z,101460.48
2018-07-26T18:51:28.795Z,101468.23
2018-07-26T18:53:58.229Z,101465.56
2018-07-26T18:56:27.717Z,101471.91
2018-07-26T18:58:57.059Z,101472.02
2018-07-26T19:01:26.694Z,101472.71
2018-07-26T19:03:56.136Z,101484.17
2018-07-26T19:06:25.556Z,101477.59
2018-07-26T19:08:55.110Z,101479.10
2018-07-26T19:11:24.444Z,101480.03
2018-07-26T19:13:53.929Z,101488.31
2018-07-26T19:16:24.203Z,101485.02
2018-07-26T19:18:54.367Z,101490.94
2018-07-26T19:21:24.591Z,101497.40
2018-07-26T19:23:54.708Z,101492.39
2018-07-26T19:26:24.845Z,101497.05
2018-07-26T19:28:54.650Z,101499.73
2018-07-26T19:31:25.099Z,101498.90
2018-07-26T19:33:54.831Z,101507.08
2018-07-26T19:36:24.311Z,101504.23
2018-07-26T19:38:56.175Z,101504.51
2018-07-26T19:41:25.950Z,101505.98
2018-07-26T19:43:55.486Z,101511.02
2018-07-26T19:46:25.558Z,101515.34
2018-07-26T19:48:55.419Z,101519.33
2018-07-26T19:51:25.871Z,101518.44
2018-07-26T19:53:55.261Z,101529.27
2018-07-26T19:56:24.945Z,101512.15
2018-07-26T19:58:54.982Z,101519.59
2018-07-26T20:01:25.735Z,101518.44
2018-07-26T20:03:55.673Z,101520.38
2018-07-26T20:06:25.714Z,101526.61
2018-07-26T20:08:56.175Z,101518.94
2018-07-26T20:11:27.652Z,101516.77
2018-07-26T20:13:57.848Z,101519.20
2018-07-26T20:16:27.393Z,101517.66
2018-07-26T20:18:56.717Z,101514.23
2018-07-26T20:21:26.179Z,101524.89
2018-07-26T20:23:55.527Z,101525.36
2018-07-26T20:26:24.987Z,101522.03
2018-07-26T20:28:54.664Z,101526.55
2018-07-26T20:31:24.042Z,101531.39
2018-07-26T20:33:53.575Z,101528.66
2018-07-26T20:36:22.974Z,101528.38
2018-07-26T20:38:52.981Z,101527.56
2018-07-26T20:41:23.656Z,101525.78
2018-07-26T20:43:53.449Z,101527.03
2018-07-26T20:46:23.532Z,101524.61
2018-07-26T20:48:53.240Z,101528.02
2018-07-26T20:51:22.974Z,101525.55
2018-07-26T20:53:53.007Z,101524.44
2018-07-26T20:56:22.902Z,101529.14
2018-07-26T20:58:55.252Z,101528.73
2018-07-26T21:01:24.799Z,101527.65
2018-07-26T21:03:59.707Z,101521.05
2018-07-26T21:06:29.138Z,101524.95
2018-07-26T21:08:58.701Z,101524.23
2018-07-26T21:11:28.246Z,101521.14
2018-07-26T21:13:57.847Z,101530.01
2018-07-26T21:16:27.359Z,101534.27
2018-07-26T21:18:56.876Z,101536.14
2018-07-26T21:21:26.693Z,101534.56
2018-07-26T21:23:56.395Z,101537.47
2018-07-26T21:26:26.181Z,101536.14
2018-07-26T21:28:55.912Z,101542.36
2018-07-26T21:31:25.591Z,101536.69
2018-07-26T21:33:55.254Z,101537.92
2018-07-26T21:36:25.238Z,101541.22
2018-07-26T21:38:55.652Z,101539.98
2018-07-26T21:41:25.204Z,101542.79
2018-07-26T21:43:55.239Z,101536.66
2018-07-26T21:46:24.725Z,101545.81
2018-07-26T21:48:54.722Z,101546.89
2018-07-26T21:51:24.501Z,101548.78
2018-07-26T21:53:53.840Z,101539.97
2018-07-26T21:56:23.407Z,101548.92
2018-07-26T21:58:53.662Z,101542.80
2018-07-26T22:01:23.308Z,101550.16
2018-07-26T22:03:52.968Z,101548.00
2018-07-26T22:06:22.483Z,101552.77
2018-07-26T22:08:52.514Z,101549.72
2018-07-26T22:11:22.128Z,101555.97
2018-07-26T22:13:51.912Z,101546.73
2018-07-26T22:16:21.832Z,101550.24
2018-07-26T22:18:51.413Z,101553.17
2018-07-26T22:21:21.361Z,101544.14
2018-07-26T22:23:51.360Z,101548.76
2018-07-26T22:26:21.057Z,101545.39
2018-07-26T22:28:50.970Z,101549.70
2018-07-26T22:31:20.814Z,101550.48
2018-07-26T22:33:50.973Z,101547.03
2018-07-26T22:36:20.785Z,101549.11
2018-07-26T22:38:51.053Z,101545.45
2018-07-26T22:41:21.474Z,101550.55
2018-07-26T22:43:51.294Z,101544.23
2018-07-26T22:46:21.757Z,101550.92
2018-07-26T22:48:51.744Z,101544.98
2018-07-26T22:51:21.469Z,101553.70
2018-07-26T22:53:51.266Z,101556.83
2018-07-26T22:56:21.161Z,101559.05
2018-07-26T22:58:51.065Z,101559.61
2018-07-26T23:01:20.480Z,101561.97
2018-07-26T23:03:50.542Z,101558.58
2018-07-26T23:06:20.009Z,101567.20
2018-07-26T23:08:50.038Z,101569.04
2018-07-26T23:11:19.917Z,101571.81
2018-07-26T23:13:49.432Z,101574.09
2018-07-26T23:16:18.895Z,101567.92
2018-07-26T23:18:49.168Z,101563.83
2018-07-26T23:21:18.920Z,101564.16
2018-07-26T23:23:48.622Z,101565.61
2018-07-26T23:26:18.372Z,101556.19
2018-07-26T23:28:48.235Z,101551.91
2018-07-26T23:31:18.041Z,101545.59
2018-07-26T23:33:47.577Z,101555.05
2018-07-26T23:36:17.353Z,101555.02
2018-07-26T23:38:47.229Z,101553.32
2018-07-26T23:41:17.369Z,101550.96
2018-07-26T23:43:47.321Z,101552.98
2018-07-26T23:46:16.990Z,101554.10
2018-07-26T23:48:46.971Z,101555.95
2018-07-26T23:51:16.798Z,101554.95
2018-07-26T23:53:46.860Z,101552.26
2018-07-26T23:56:16.482Z,101550.70
2018-07-26T23:58:46.437Z,101552.03
